sensor_id;sensor_type;location;lat;lon;timestamp;P1;durP1;ratioP1;P2;durP2;ratioP2
52434;SDS011;38354;52.892;6.148;2022-10-19T03:02:41;6.25;;;2.00;;
52434;SDS011;38354;52.892;6.148;2022-10-19T03:05:07;6.55;;;2.20;;
52434;SDS011;38354;52.892;6.148;2022-10-19T03:07:33;10.10;;;2.30;;
52434;SDS011;38354;52.892;6.148;2022-10-19T03:09:59;5.68;;;2.30;;
52434;SDS011;38354;52.892;6.148;2022-10-19T03:12:25;7.45;;;2.58;;
52434;SDS011;38354;52.892;6.148;2022-10-19T03:14:50;11.57;;;2.70;;
52434;SDS011;38354;52.892;6.148;2022-10-19T03:17:16;7.60;;;2.65;;
52434;SDS011;38354;52.892;6.148;2022-10-19T03:19:42;7.90;;;2.38;;
52434;SDS011;38354;52.892;6.148;2022-10-19T03:22:07;4.57;;;2.20;;
52434;SDS011;38354;52.892;6.148;2022-10-19T03:24:33;7.53;;;2.78;;
52434;SDS011;38354;52.892;6.148;2022-10-19T03:26:59;5.85;;;2.50;;
52434;SDS011;38354;52.892;6.148;2022-10-19T03:29:24;9.75;;;3.10;;
52434;SDS011;38354;52.892;6.148;2022-10-19T03:31:50;7.88;;;2.70;;
52434;SDS011;38354;52.892;6.148;2022-10-19T03:34:16;6.75;;;2.65;;
52434;SDS011;38354;52.892;6.148;2022-10-19T03:36:42;6.20;;;2.70;;
52434;SDS011;38354;52.892;6.148;2022-10-19T03:39:10;5.53;;;2.65;;
52434;SDS011;38354;52.892;6.148;2022-10-19T03:41:38;5.20;;;2.60;;
52434;SDS011;38354;52.892;6.148;2022-10-19T03:44:05;8.90;;;2.55;;
52434;SDS011;38354;52.892;6.148;2022-10-19T03:46:31;8.18;;;2.88;;
52434;SDS011;38354;52.892;6.148;2022-10-19T03:48:57;6.05;;;2.58;;
52434;SDS011;38354;52.892;6.148;2022-10-19T03:51:24;8.50;;;2.90;;
52434;SDS011;38354;52.892;6.148;2022-10-19T03:53:52;6.20;;;2.70;;
52434;SDS011;38354;52.892;6.148;2022-10-19T03:56:19;6.90;;;2.75;;
52434;SDS011;38354;52.892;6.148;2022-10-19T03:58:47;6.88;;;3.00;;
52434;SDS011;38354;52.892;6.148;2022-10-19T04:01:18;6.88;;;2.50;;
52434;SDS011;38354;52.892;6.148;2022-10-19T04:03:45;6.30;;;3.17;;
52434;SDS011;38354;52.892;6.148;2022-10-19T04:06:16;8.30;;;2.70;;
52434;SDS011;38354;52.892;6.148;2022-10-19T04:08:43;5.32;;;2.47;;
52434;SDS011;38354;52.892;6.148;2022-10-19T04:11:12;9.25;;;3.08;;
52434;SDS011;38354;52.892;6.148;2022-10-19T04:13:39;7.47;;;2.95;;
52434;SDS011;38354;52.892;6.148;2022-10-19T04:16:05;8.73;;;3.30;;
52434;SDS011;38354;52.892;6.148;2022-10-19T04:18:31;9.75;;;2.50;;
52434;SDS011;38354;52.892;6.148;2022-10-19T04:20:58;9.98;;;2.55;;
52434;SDS011;38354;52.892;6.148;2022-10-19T04:23:25;8.38;;;2.65;;
52434;SDS011;38354;52.892;6.148;2022-10-19T04:25:57;5.25;;;2.20;;
52434;SDS011;38354;52.892;6.148;2022-10-19T04:28:24;8.65;;;2.72;;
52434;SDS011;38354;52.892;6.148;2022-10-19T04:30:50;6.15;;;2.70;;
52434;SDS011;38354;52.892;6.148;2022-10-19T04:33:15;8.02;;;2.95;;
52434;SDS011;38354;52.892;6.148;2022-10-19T04:35:41;5.68;;;2.63;;
52434;SDS011;38354;52.892;6.148;2022-10-19T04:38:06;6.00;;;2.90;;
52434;SDS011;38354;52.892;6.148;2022-10-19T04:40:35;7.30;;;2.70;;
52434;SDS011;38354;52.892;6.148;2022-10-19T04:43:01;9.07;;;2.33;;
52434;SDS011;38354;52.892;6.148;2022-10-19T04:45:28;5.97;;;2.40;;
52434;SDS011;38354;52.892;6.148;2022-10-19T04:47:54;8.73;;;3.08;;
52434;SDS011;38354;52.892;6.148;2022-10-19T04:50:21;4.40;;;2.67;;
52434;SDS011;38354;52.892;6.148;2022-10-19T04:52:47;10.30;;;2.70;;
52434;SDS011;38354;52.892;6.148;2022-10-19T04:55:13;6.50;;;2.92;;
52434;SDS011;38354;52.892;6.148;2022-10-19T04:57:38;8.00;;;2.95;;
52434;SDS011;38354;52.892;6.148;2022-10-19T05:00:04;5.20;;;2.42;;
52434;SDS011;38354;52.892;6.148;2022-10-19T05:02:30;5.85;;;2.63;;
52434;SDS011;38354;52.892;6.148;2022-10-19T05:04:56;7.38;;;3.28;;
52434;SDS011;38354;52.892;6.148;2022-10-19T05:07:21;8.52;;;2.80;;
52434;SDS011;38354;52.892;6.148;2022-10-19T05:09:47;7.97;;;2.75;;
52434;SDS011;38354;52.892;6.148;2022-10-19T05:12:13;5.68;;;2.38;;
52434;SDS011;38354;52.892;6.148;2022-10-19T05:14:38;6.68;;;2.42;;
52434;SDS011;38354;52.892;6.148;2022-10-19T05:17:04;6.63;;;2.60;;
52434;SDS011;38354;52.892;6.148;2022-10-19T05:19:30;6.63;;;2.50;;
52434;SDS011;38354;52.892;6.148;2022-10-19T05:21:55;10.43;;;2.90;;
52434;SDS011;38354;52.892;6.148;2022-10-19T05:24:21;6.03;;;2.55;;
52434;SDS011;38354;52.892;6.148;2022-10-19T05:26:47;8.00;;;2.47;;
52434;SDS011;38354;52.892;6.148;2022-10-19T05:29:12;9.32;;;2.70;;
52434;SDS011;38354;52.892;6.148;2022-10-19T05:31:38;9.38;;;2.70;;
52434;SDS011;38354;52.892;6.148;2022-10-19T05:34:04;10.98;;;2.67;;
52434;SDS011;38354;52.892;6.148;2022-10-19T05:36:33;9.27;;;3.35;;
52434;SDS011;38354;52.892;6.148;2022-10-19T05:41:36;5.60;;;2.38;;
52434;SDS011;38354;52.892;6.148;2022-10-19T05:44:03;6.45;;;3.03;;
52434;SDS011;38354;52.892;6.148;2022-10-19T05:46:29;5.72;;;2.42;;
52434;SDS011;38354;52.892;6.148;2022-10-19T05:48:56;6.88;;;2.63;;
52434;SDS011;38354;52.892;6.148;2022-10-19T05:51:23;11.00;;;2.95;;
52434;SDS011;38354;52.892;6.148;2022-10-19T05:53:51;8.65;;;2.97;;
52434;SDS011;38354;52.892;6.148;2022-10-19T05:56:18;6.65;;;2.88;;
52434;SDS011;38354;52.892;6.148;2022-10-19T05:58:46;6.88;;;2.38;;
52434;SDS011;38354;52.892;6.148;2022-10-19T06:01:12;11.38;;;2.53;;
52434;SDS011;38354;52.892;6.148;2022-10-19T06:03:39;6.18;;;2.70;;
52434;SDS011;38354;52.892;6.148;2022-10-19T06:06:05;4.78;;;2.40;;
52434;SDS011;38354;52.892;6.148;2022-10-19T06:08:33;7.18;;;2.95;;
52434;SDS011;38354;52.892;6.148;2022-10-19T06:11:04;9.77;;;2.75;;
52434;SDS011;38354;52.892;6.148;2022-10-19T06:13:38;7.70;;;3.25;;
52434;SDS011;38354;52.892;6.148;2022-10-19T06:16:05;7.35;;;2.88;;
52434;SDS011;38354;52.892;6.148;2022-10-19T06:18:32;8.45;;;2.58;;
52434;SDS011;38354;52.892;6.148;2022-10-19T06:21:08;5.80;;;2.28;;
52434;SDS011;38354;52.892;6.148;2022-10-19T06:23:36;6.60;;;2.83;;
52434;SDS011;38354;52.892;6.148;2022-10-19T06:26:03;9.20;;;2.67;;
52434;SDS011;38354;52.892;6.148;2022-10-19T06:28:31;14.70;;;3.28;;
52434;SDS011;38354;52.892;6.148;2022-10-19T06:30:57;17.73;;;3.88;;
52434;SDS011;38354;52.892;6.148;2022-10-19T06:33:24;6.90;;;1.77;;
52434;SDS011;38354;52.892;6.148;2022-10-19T06:35:50;12.18;;;2.67;;
52434;SDS011;38354;52.892;6.148;2022-10-19T06:38:16;11.75;;;2.47;;
52434;SDS011;38354;52.892;6.148;2022-10-19T06:40:41;8.55;;;2.22;;
52434;SDS011;38354;52.892;6.148;2022-10-19T06:43:07;15.00;;;2.67;;
52434;SDS011;38354;52.892;6.148;2022-10-19T06:45:35;11.00;;;2.40;;
52434;SDS011;38354;52.892;6.148;2022-10-19T06:48:02;12.02;;;2.58;;
52434;SDS011;38354;52.892;6.148;2022-10-19T06:50:28;10.18;;;2.15;;
52434;SDS011;38354;52.892;6.148;2022-10-19T06:52:56;7.70;;;2.30;;
52434;SDS011;38354;52.892;6.148;2022-10-19T06:55:22;7.88;;;2.10;;
52434;SDS011;38354;52.892;6.148;2022-10-19T06:57:48;10.25;;;2.00;;
52434;SDS011;38354;52.892;6.148;2022-10-19T07:00:14;12.18;;;2.17;;
52434;SDS011;38354;52.892;6.148;2022-10-19T07:02:40;8.00;;;1.63;;
52434;SDS011;38354;52.892;6.148;2022-10-19T07:05:06;14.70;;;2.00;;
52434;SDS011;38354;52.892;6.148;2022-10-19T07:07:32;3.08;;;1.15;;
52434;SDS011;38354;52.892;6.148;2022-10-19T07:09:58;7.95;;;1.95;;
52434;SDS011;38354;52.892;6.148;2022-10-19T07:12:24;9.30;;;1.52;;
52434;SDS011;38354;52.892;6.148;2022-10-19T07:14:49;8.20;;;1.77;;
52434;SDS011;38354;52.892;6.148;2022-10-19T07:17:16;11.80;;;2.35;;
52434;SDS011;38354;52.892;6.148;2022-10-19T07:19:41;9.40;;;2.53;;
52434;SDS011;38354;52.892;6.148;2022-10-19T07:22:07;9.65;;;2.00;;
52434;SDS011;38354;52.892;6.148;2022-10-19T07:24:33;11.07;;;2.10;;
52434;SDS011;38354;52.892;6.148;2022-10-19T07:26:58;9.05;;;1.75;;
52434;SDS011;38354;52.892;6.148;2022-10-19T07:29:24;7.88;;;2.08;;
52434;SDS011;38354;52.892;6.148;2022-10-19T07:31:50;6.82;;;1.48;;
52434;SDS011;38354;52.892;6.148;2022-10-19T07:34:15;11.27;;;1.75;;
52434;SDS011;38354;52.892;6.148;2022-10-19T07:36:43;10.27;;;1.42;;
52434;SDS011;38354;52.892;6.148;2022-10-19T07:39:10;10.38;;;1.50;;
52434;SDS011;38354;52.892;6.148;2022-10-19T07:41:36;6.28;;;1.30;;
52434;SDS011;38354;52.892;6.148;2022-10-19T07:44:03;9.95;;;1.58;;
52434;SDS011;38354;52.892;6.148;2022-10-19T07:46:30;13.65;;;1.63;;
52434;SDS011;38354;52.892;6.148;2022-10-19T07:48:58;10.13;;;1.75;;
52434;SDS011;38354;52.892;6.148;2022-10-19T07:51:24;5.78;;;1.42;;
52434;SDS011;38354;52.892;6.148;2022-10-19T07:53:50;13.73;;;1.95;;
52434;SDS011;38354;52.892;6.148;2022-10-19T07:56:20;13.68;;;2.42;;
52434;SDS011;38354;52.892;6.148;2022-10-19T07:58:48;11.98;;;2.20;;
52434;SDS011;38354;52.892;6.148;2022-10-19T08:01:15;19.48;;;2.58;;
52434;SDS011;38354;52.892;6.148;2022-10-19T08:03:42;14.73;;;2.22;;
52434;SDS011;38354;52.892;6.148;2022-10-19T08:06:10;11.35;;;2.47;;
52434;SDS011;38354;52.892;6.148;2022-10-19T08:08:37;12.88;;;2.90;;
52434;SDS011;38354;52.892;6.148;2022-10-19T08:11:10;8.82;;;2.05;;
52434;SDS011;38354;52.892;6.148;2022-10-19T08:13:44;11.93;;;1.80;;
52434;SDS011;38354;52.892;6.148;2022-10-19T08:18:58;8.40;;;1.20;;
52434;SDS011;38354;52.892;6.148;2022-10-19T08:21:25;6.70;;;0.93;;
52434;SDS011;38354;52.892;6.148;2022-10-19T08:23:51;14.38;;;1.92;;
52434;SDS011;38354;52.892;6.148;2022-10-19T08:26:17;10.23;;;2.20;;
52434;SDS011;38354;52.892;6.148;2022-10-19T08:28:43;6.50;;;1.60;;
52434;SDS011;38354;52.892;6.148;2022-10-19T08:31:10;15.82;;;2.13;;
52434;SDS011;38354;52.892;6.148;2022-10-19T08:33:35;9.25;;;1.35;;
52434;SDS011;38354;52.892;6.148;2022-10-19T08:36:05;4.32;;;0.80;;
52434;SDS011;38354;52.892;6.148;2022-10-19T08:38:33;19.13;;;3.75;;
52434;SDS011;38354;52.892;6.148;2022-10-19T08:41:03;5.97;;;1.10;;
52434;SDS011;38354;52.892;6.148;2022-10-19T08:43:39;11.73;;;1.50;;
52434;SDS011;38354;52.892;6.148;2022-10-19T08:46:18;9.75;;;1.38;;
52434;SDS011;38354;52.892;6.148;2022-10-19T08:48:49;9.63;;;1.42;;
52434;SDS011;38354;52.892;6.148;2022-10-19T08:51:16;11.57;;;1.13;;
52434;SDS011;38354;52.892;6.148;2022-10-19T08:58:48;6.43;;;1.00;;
52434;SDS011;38354;52.892;6.148;2022-10-19T09:06:54;8.75;;;0.98;;
52434;SDS011;38354;52.892;6.148;2022-10-19T09:09:29;8.43;;;1.08;;
52434;SDS011;38354;52.892;6.148;2022-10-19T09:11:57;6.38;;;1.27;;
52434;SDS011;38354;52.892;6.148;2022-10-19T09:14:34;9.75;;;1.23;;
52434;SDS011;38354;52.892;6.148;2022-10-19T09:17:13;2.78;;;0.98;;
52434;SDS011;38354;52.892;6.148;2022-10-19T09:19:41;7.43;;;0.82;;
52434;SDS011;38354;52.892;6.148;2022-10-19T09:22:10;6.30;;;1.58;;
52434;SDS011;38354;52.892;6.148;2022-10-19T09:24:51;8.95;;;1.33;;
52434;SDS011;38354;52.892;6.148;2022-10-19T09:27:25;7.50;;;0.80;;
52434;SDS011;38354;52.892;6.148;2022-10-19T09:29:57;7.97;;;1.15;;
52434;SDS011;38354;52.892;6.148;2022-10-19T09:32:34;6.03;;;0.90;;
52434;SDS011;38354;52.892;6.148;2022-10-19T09:35:06;7.00;;;1.00;;
52434;SDS011;38354;52.892;6.148;2022-10-19T09:37:40;9.85;;;1.17;;
52434;SDS011;38354;52.892;6.148;2022-10-19T09:40:13;8.02;;;1.35;;
52434;SDS011;38354;52.892;6.148;2022-10-19T09:42:44;8.77;;;0.82;;
52434;SDS011;38354;52.892;6.148;2022-10-19T09:45:18;6.63;;;1.10;;
52434;SDS011;38354;52.892;6.148;2022-10-19T09:47:51;7.70;;;0.98;;
52434;SDS011;38354;52.892;6.148;2022-10-19T09:52:51;8.00;;;1.02;;
52434;SDS011;38354;52.892;6.148;2022-10-19T09:55:21;8.65;;;0.88;;
52434;SDS011;38354;52.892;6.148;2022-10-19T09:57:50;9.38;;;0.90;;
52434;SDS011;38354;52.892;6.148;2022-10-19T10:00:24;9.75;;;0.70;;
52434;SDS011;38354;52.892;6.148;2022-10-19T10:02:56;6.63;;;0.70;;
52434;SDS011;38354;52.892;6.148;2022-10-19T10:05:32;2.65;;;0.70;;
52434;SDS011;38354;52.892;6.148;2022-10-19T10:08:01;5.60;;;0.93;;
52434;SDS011;38354;52.892;6.148;2022-10-19T10:10:30;5.55;;;0.90;;
52434;SDS011;38354;52.892;6.148;2022-10-19T10:13:08;5.25;;;0.85;;
52434;SDS011;38354;52.892;6.148;2022-10-19T10:15:44;7.22;;;1.08;;
52434;SDS011;38354;52.892;6.148;2022-10-19T10:18:13;7.78;;;1.08;;
52434;SDS011;38354;52.892;6.148;2022-10-19T10:23:30;8.40;;;1.02;;
52434;SDS011;38354;52.892;6.148;2022-10-19T10:26:00;7.82;;;1.35;;
52434;SDS011;38354;52.892;6.148;2022-10-19T10:28:27;4.90;;;1.05;;
52434;SDS011;38354;52.892;6.148;2022-10-19T10:30:57;5.88;;;0.85;;
52434;SDS011;38354;52.892;6.148;2022-10-19T10:33:29;8.13;;;0.90;;
52434;SDS011;38354;52.892;6.148;2022-10-19T10:36:00;3.88;;;0.70;;
52434;SDS011;38354;52.892;6.148;2022-10-19T10:38:32;6.07;;;0.80;;
52434;SDS011;38354;52.892;6.148;2022-10-19T10:41:14;8.25;;;1.30;;
52434;SDS011;38354;52.892;6.148;2022-10-19T10:43:50;9.30;;;1.10;;
52434;SDS011;38354;52.892;6.148;2022-10-19T10:46:21;8.50;;;1.75;;
52434;SDS011;38354;52.892;6.148;2022-10-19T10:48:57;6.80;;;1.95;;
52434;SDS011;38354;52.892;6.148;2022-10-19T10:51:29;10.40;;;1.03;;
52434;SDS011;38354;52.892;6.148;2022-10-19T10:54:05;7.57;;;1.10;;
52434;SDS011;38354;52.892;6.148;2022-10-19T10:59:35;8.20;;;1.30;;
52434;SDS011;38354;52.892;6.148;2022-10-19T11:04:51;6.50;;;1.27;;
52434;SDS011;38354;52.892;6.148;2022-10-19T11:07:29;11.35;;;1.02;;
52434;SDS011;38354;52.892;6.148;2022-10-19T11:09:58;15.70;;;1.58;;
52434;SDS011;38354;52.892;6.148;2022-10-19T11:12:35;7.00;;;0.93;;
52434;SDS011;38354;52.892;6.148;2022-10-19T11:15:26;8.57;;;1.30;;
52434;SDS011;38354;52.892;6.148;2022-10-19T11:20:35;7.70;;;1.20;;
52434;SDS011;38354;52.892;6.148;2022-10-19T11:23:13;7.05;;;1.17;;
52434;SDS011;38354;52.892;6.148;2022-10-19T11:28:21;6.13;;;0.85;;
52434;SDS011;38354;52.892;6.148;2022-10-19T11:30:56;8.98;;;1.00;;
52434;SDS011;38354;52.892;6.148;2022-10-19T11:33:39;6.70;;;1.00;;
52434;SDS011;38354;52.892;6.148;2022-10-19T11:39:29;9.55;;;1.27;;
52434;SDS011;38354;52.892;6.148;2022-10-19T11:45:09;7.03;;;0.80;;
52434;SDS011;38354;52.892;6.148;2022-10-19T11:48:02;4.38;;;1.02;;
52434;SDS011;38354;52.892;6.148;2022-10-19T11:50:52;8.85;;;1.73;;
52434;SDS011;38354;52.892;6.148;2022-10-19T11:53:48;9.43;;;1.30;;
52434;SDS011;38354;52.892;6.148;2022-10-19T11:56:29;7.03;;;1.17;;
52434;SDS011;38354;52.892;6.148;2022-10-19T11:59:19;9.50;;;1.38;;
52434;SDS011;38354;52.892;6.148;2022-10-19T12:05:21;7.55;;;1.20;;
52434;SDS011;38354;52.892;6.148;2022-10-19T12:08:08;9.13;;;1.23;;
52434;SDS011;38354;52.892;6.148;2022-10-19T12:10:56;12.40;;;1.25;;
52434;SDS011;38354;52.892;6.148;2022-10-19T12:13:49;7.80;;;1.42;;
52434;SDS011;38354;52.892;6.148;2022-10-19T12:16:38;13.60;;;1.40;;
52434;SDS011;38354;52.892;6.148;2022-10-19T12:19:08;8.32;;;1.17;;
52434;SDS011;38354;52.892;6.148;2022-10-19T12:21:40;9.73;;;1.92;;
52434;SDS011;38354;52.892;6.148;2022-10-19T12:24:15;5.63;;;1.35;;
52434;SDS011;38354;52.892;6.148;2022-10-19T12:26:43;9.52;;;1.50;;
52434;SDS011;38354;52.892;6.148;2022-10-19T12:29:23;5.35;;;1.40;;
52434;SDS011;38354;52.892;6.148;2022-10-19T12:31:52;9.63;;;1.30;;
52434;SDS011;38354;52.892;6.148;2022-10-19T12:34:22;4.70;;;1.30;;
52434;SDS011;38354;52.892;6.148;2022-10-19T12:36:53;6.95;;;1.83;;
52434;SDS011;38354;52.892;6.148;2022-10-19T12:42:28;6.85;;;1.40;;
52434;SDS011;38354;52.892;6.148;2022-10-19T12:53:21;3.28;;;1.20;;
52434;SDS011;38354;52.892;6.148;2022-10-19T12:56:00;5.57;;;1.60;;
52434;SDS011;38354;52.892;6.148;2022-10-19T13:01:06;7.72;;;1.33;;
52434;SDS011;38354;52.892;6.148;2022-10-19T13:03:40;8.35;;;1.38;;
52434;SDS011;38354;52.892;6.148;2022-10-19T13:06:13;8.05;;;1.45;;
52434;SDS011;38354;52.892;6.148;2022-10-19T13:11:22;5.63;;;1.00;;
52434;SDS011;38354;52.892;6.148;2022-10-19T13:21:48;4.57;;;0.77;;
52434;SDS011;38354;52.892;6.148;2022-10-19T13:27:35;2.50;;;0.70;;
52434;SDS011;38354;52.892;6.148;2022-10-19T13:29:50;2.65;;;0.52;;
52434;SDS011;38354;52.892;6.148;2022-10-19T13:32:36;4.90;;;0.88;;
52434;SDS011;38354;52.892;6.148;2022-10-19T13:40:33;5.18;;;1.15;;
52434;SDS011;38354;52.892;6.148;2022-10-19T13:43:01;3.92;;;1.30;;
52434;SDS011;38354;52.892;6.148;2022-10-19T13:45:27;8.43;;;1.63;;
52434;SDS011;38354;52.892;6.148;2022-10-19T13:47:58;7.43;;;1.88;;
52434;SDS011;38354;52.892;6.148;2022-10-19T13:50:39;6.57;;;1.52;;
52434;SDS011;38354;52.892;6.148;2022-10-19T13:53:13;7.85;;;1.40;;
52434;SDS011;38354;52.892;6.148;2022-10-19T13:55:54;7.38;;;1.38;;
52434;SDS011;38354;52.892;6.148;2022-10-19T14:06:59;7.53;;;1.60;;
52434;SDS011;38354;52.892;6.148;2022-10-19T14:10:05;7.00;;;1.55;;
52434;SDS011;38354;52.892;6.148;2022-10-19T14:12:42;6.95;;;1.52;;
52434;SDS011;38354;52.892;6.148;2022-10-19T14:15:10;6.97;;;1.70;;
52434;SDS011;38354;52.892;6.148;2022-10-19T14:17:42;7.68;;;1.92;;
52434;SDS011;38354;52.892;6.148;2022-10-19T14:20:42;8.90;;;1.80;;
52434;SDS011;38354;52.892;6.148;2022-10-19T14:23:24;5.32;;;1.55;;
52434;SDS011;38354;52.892;6.148;2022-10-19T14:25:58;9.95;;;2.25;;
52434;SDS011;38354;52.892;6.148;2022-10-19T14:28:44;6.72;;;1.98;;
52434;SDS011;38354;52.892;6.148;2022-10-19T14:31:18;5.55;;;1.60;;
52434;SDS011;38354;52.892;6.148;2022-10-19T14:33:48;10.68;;;1.70;;
52434;SDS011;38354;52.892;6.148;2022-10-19T14:36:19;8.68;;;2.30;;
52434;SDS011;38354;52.892;6.148;2022-10-19T14:43:51;8.05;;;2.13;;
52434;SDS011;38354;52.892;6.148;2022-10-19T14:46:18;7.72;;;1.90;;
52434;SDS011;38354;52.892;6.148;2022-10-19T14:48:44;8.80;;;2.60;;
52434;SDS011;38354;52.892;6.148;2022-10-19T14:54:17;6.68;;;2.30;;
52434;SDS011;38354;52.892;6.148;2022-10-19T15:01:49;8.05;;;2.00;;
52434;SDS011;38354;52.892;6.148;2022-10-19T15:04:19;8.85;;;2.70;;
52434;SDS011;38354;52.892;6.148;2022-10-19T15:06:48;9.27;;;2.45;;
52434;SDS011;38354;52.892;6.148;2022-10-19T15:09:36;6.53;;;2.40;;
52434;SDS011;38354;52.892;6.148;2022-10-19T15:12:05;7.03;;;2.47;;
52434;SDS011;38354;52.892;6.148;2022-10-19T15:14:35;10.40;;;2.70;;
52434;SDS011;38354;52.892;6.148;2022-10-19T15:17:03;5.70;;;2.83;;
52434;SDS011;38354;52.892;6.148;2022-10-19T15:24:33;7.75;;;2.33;;
52434;SDS011;38354;52.892;6.148;2022-10-19T15:29:45;8.43;;;3.55;;
52434;SDS011;38354;52.892;6.148;2022-10-19T15:32:23;8.18;;;3.00;;
52434;SDS011;38354;52.892;6.148;2022-10-19T15:34:53;9.07;;;3.50;;
52434;SDS011;38354;52.892;6.148;2022-10-19T15:37:21;15.00;;;3.55;;
52434;SDS011;38354;52.892;6.148;2022-10-19T15:39:48;6.10;;;2.70;;
52434;SDS011;38354;52.892;6.148;2022-10-19T15:42:22;6.38;;;3.17;;
52434;SDS011;38354;52.892;6.148;2022-10-19T15:45:57;7.75;;;3.00;;
52434;SDS011;38354;52.892;6.148;2022-10-19T15:50:43;8.13;;;3.15;;
52434;SDS011;38354;52.892;6.148;2022-10-19T15:53:13;8.55;;;3.10;;
52434;SDS011;38354;52.892;6.148;2022-10-19T15:55:39;7.13;;;3.45;;
52434;SDS011;38354;52.892;6.148;2022-10-19T15:58:05;8.55;;;3.35;;
52434;SDS011;38354;52.892;6.148;2022-10-19T16:00:30;9.32;;;3.40;;
52434;SDS011;38354;52.892;6.148;2022-10-19T16:02:56;10.15;;;3.58;;
52434;SDS011;38354;52.892;6.148;2022-10-19T16:05:22;9.65;;;3.47;;
52434;SDS011;38354;52.892;6.148;2022-10-19T16:07:48;7.88;;;3.22;;
52434;SDS011;38354;52.892;6.148;2022-10-19T16:10:16;7.43;;;3.45;;
52434;SDS011;38354;52.892;6.148;2022-10-19T16:12:43;9.35;;;3.95;;
52434;SDS011;38354;52.892;6.148;2022-10-19T16:15:12;6.45;;;3.15;;
52434;SDS011;38354;52.892;6.148;2022-10-19T16:17:41;9.35;;;3.53;;
52434;SDS011;38354;52.892;6.148;2022-10-19T16:20:09;7.45;;;3.70;;
52434;SDS011;38354;52.892;6.148;2022-10-19T16:22:35;10.23;;;4.57;;
52434;SDS011;38354;52.892;6.148;2022-10-19T16:25:00;7.68;;;4.10;;
52434;SDS011;38354;52.892;6.148;2022-10-19T16:27:26;11.88;;;4.45;;
52434;SDS011;38354;52.892;6.148;2022-10-19T16:29:52;9.30;;;4.25;;
52434;SDS011;38354;52.892;6.148;2022-10-19T16:32:18;8.50;;;4.30;;
52434;SDS011;38354;52.892;6.148;2022-10-19T16:34:44;10.90;;;4.40;;
52434;SDS011;38354;52.892;6.148;2022-10-19T16:37:10;9.52;;;4.20;;
52434;SDS011;38354;52.892;6.148;2022-10-19T16:39:36;8.43;;;4.63;;
52434;SDS011;38354;52.892;6.148;2022-10-19T16:42:02;8.32;;;4.00;;
52434;SDS011;38354;52.892;6.148;2022-10-19T16:44:28;8.90;;;4.20;;
52434;SDS011;38354;52.892;6.148;2022-10-19T16:46:56;11.27;;;4.60;;
52434;SDS011;38354;52.892;6.148;2022-10-19T16:49:23;12.55;;;5.30;;
52434;SDS011;38354;52.892;6.148;2022-10-19T16:51:49;7.70;;;4.32;;
52434;SDS011;38354;52.892;6.148;2022-10-19T16:54:14;10.38;;;4.95;;
52434;SDS011;38354;52.892;6.148;2022-10-19T16:56:45;11.00;;;4.70;;
52434;SDS011;38354;52.892;6.148;2022-10-19T16:59:13;11.93;;;4.70;;
52434;SDS011;38354;52.892;6.148;2022-10-19T17:01:41;17.40;;;7.20;;
52434;SDS011;38354;52.892;6.148;2022-10-19T17:04:08;9.90;;;5.43;;
52434;SDS011;38354;52.892;6.148;2022-10-19T17:06:37;12.85;;;4.75;;
52434;SDS011;38354;52.892;6.148;2022-10-19T17:09:04;11.82;;;4.85;;
52434;SDS011;38354;52.892;6.148;2022-10-19T17:11:34;12.80;;;5.32;;
52434;SDS011;38354;52.892;6.148;2022-10-19T17:14:04;8.27;;;4.95;;
52434;SDS011;38354;52.892;6.148;2022-10-19T17:16:32;14.15;;;4.53;;
52434;SDS011;38354;52.892;6.148;2022-10-19T17:18:59;12.23;;;3.80;;
52434;SDS011;38354;52.892;6.148;2022-10-19T17:21:27;10.35;;;3.97;;
52434;SDS011;38354;52.892;6.148;2022-10-19T17:23:55;8.70;;;3.38;;
52434;SDS011;38354;52.892;6.148;2022-10-19T17:26:24;11.48;;;3.33;;
52434;SDS011;38354;52.892;6.148;2022-10-19T17:28:51;8.45;;;3.35;;
52434;SDS011;38354;52.892;6.148;2022-10-19T17:31:16;9.80;;;3.58;;
52434;SDS011;38354;52.892;6.148;2022-10-19T17:33:42;6.50;;;2.65;;
52434;SDS011;38354;52.892;6.148;2022-10-19T17:36:09;8.25;;;2.97;;
52434;SDS011;38354;52.892;6.148;2022-10-19T17:38:39;7.57;;;2.50;;
52434;SDS011;38354;52.892;6.148;2022-10-19T17:41:16;8.05;;;2.50;;
52434;SDS011;38354;52.892;6.148;2022-10-19T17:43:43;10.00;;;2.40;;
52434;SDS011;38354;52.892;6.148;2022-10-19T17:46:10;7.55;;;2.40;;
52434;SDS011;38354;52.892;6.148;2022-10-19T17:48:39;8.50;;;2.88;;
52434;SDS011;38354;52.892;6.148;2022-10-19T17:51:15;8.30;;;2.85;;
52434;SDS011;38354;52.892;6.148;2022-10-19T17:53:44;9.20;;;2.72;;
52434;SDS011;38354;52.892;6.148;2022-10-19T17:56:12;8.23;;;2.38;;
52434;SDS011;38354;52.892;6.148;2022-10-19T17:58:39;10.38;;;2.80;;
52434;SDS011;38354;52.892;6.148;2022-10-19T18:01:05;12.32;;;3.15;;
52434;SDS011;38354;52.892;6.148;2022-10-19T18:03:32;5.00;;;2.13;;
52434;SDS011;38354;52.892;6.148;2022-10-19T18:06:03;11.55;;;3.15;;
52434;SDS011;38354;52.892;6.148;2022-10-19T18:08:33;7.85;;;2.83;;
52434;SDS011;38354;52.892;6.148;2022-10-19T18:11:10;9.32;;;2.50;;
52434;SDS011;38354;52.892;6.148;2022-10-19T18:13:44;8.90;;;2.63;;
52434;SDS011;38354;52.892;6.148;2022-10-19T18:16:14;9.73;;;3.40;;
52434;SDS011;38354;52.892;6.148;2022-10-19T18:18:42;7.78;;;2.70;;
52434;SDS011;38354;52.892;6.148;2022-10-19T18:21:10;6.05;;;2.60;;
52434;SDS011;38354;52.892;6.148;2022-10-19T18:23:37;7.63;;;2.75;;
52434;SDS011;38354;52.892;6.148;2022-10-19T18:26:11;13.98;;;3.63;;
52434;SDS011;38354;52.892;6.148;2022-10-19T18:28:39;5.63;;;2.70;;
52434;SDS011;38354;52.892;6.148;2022-10-19T18:31:10;8.57;;;3.35;;
52434;SDS011;38354;52.892;6.148;2022-10-19T18:33:37;10.27;;;2.88;;
52434;SDS011;38354;52.892;6.148;2022-10-19T18:36:04;12.45;;;3.00;;
52434;SDS011;38354;52.892;6.148;2022-10-19T18:38:32;7.85;;;2.80;;
52434;SDS011;38354;52.892;6.148;2022-10-19T18:41:05;10.00;;;2.40;;
52434;SDS011;38354;52.892;6.148;2022-10-19T18:43:33;10.95;;;3.28;;
52434;SDS011;38354;52.892;6.148;2022-10-19T18:45:59;11.40;;;2.72;;
52434;SDS011;38354;52.892;6.148;2022-10-19T18:48:26;9.82;;;2.88;;
52434;SDS011;38354;52.892;6.148;2022-10-19T18:50:54;12.32;;;3.15;;
52434;SDS011;38354;52.892;6.148;2022-10-19T18:53:21;9.63;;;3.30;;
52434;SDS011;38354;52.892;6.148;2022-10-19T18:56:00;8.75;;;3.20;;
52434;SDS011;38354;52.892;6.148;2022-10-19T18:58:27;8.40;;;3.17;;
52434;SDS011;38354;52.892;6.148;2022-10-19T19:01:11;8.05;;;2.92;;
52434;SDS011;38354;52.892;6.148;2022-10-19T19:03:37;9.80;;;3.25;;
52434;SDS011;38354;52.892;6.148;2022-10-19T19:06:06;11.15;;;4.22;;
52434;SDS011;38354;52.892;6.148;2022-10-19T19:08:33;9.75;;;3.00;;
52434;SDS011;38354;52.892;6.148;2022-10-19T19:11:19;12.77;;;3.10;;
52434;SDS011;38354;52.892;6.148;2022-10-19T19:13:53;13.35;;;3.72;;
52434;SDS011;38354;52.892;6.148;2022-10-19T19:16:20;8.32;;;3.25;;
52434;SDS011;38354;52.892;6.148;2022-10-19T19:18:47;6.93;;;3.63;;
52434;SDS011;38354;52.892;6.148;2022-10-19T19:23:46;8.48;;;3.50;;
52434;SDS011;38354;52.892;6.148;2022-10-19T19:26:12;6.60;;;3.05;;
52434;SDS011;38354;52.892;6.148;2022-10-19T19:28:39;10.73;;;3.45;;
52434;SDS011;38354;52.892;6.148;2022-10-19T19:31:06;10.10;;;3.40;;
52434;SDS011;38354;52.892;6.148;2022-10-19T19:33:32;10.27;;;3.72;;
52434;SDS011;38354;52.892;6.148;2022-10-19T19:35:58;11.23;;;3.47;;
52434;SDS011;38354;52.892;6.148;2022-10-19T19:38:28;12.88;;;3.80;;
52434;SDS011;38354;52.892;6.148;2022-10-19T19:40:54;9.43;;;3.38;;
52434;SDS011;38354;52.892;6.148;2022-10-19T19:43:20;7.22;;;3.97;;
52434;SDS011;38354;52.892;6.148;2022-10-19T19:45:53;8.32;;;3.90;;
52434;SDS011;38354;52.892;6.148;2022-10-19T19:48:20;15.35;;;3.88;;
52434;SDS011;38354;52.892;6.148;2022-10-19T19:50:46;7.75;;;3.55;;
52434;SDS011;38354;52.892;6.148;2022-10-19T19:53:12;9.93;;;3.70;;